createdAt,value
2023-03-13T00:00:53.470Z,6.88
2023-03-13T00:01:48.640Z,6.87
2023-03-13T00:02:43.736Z,6.88
2023-03-13T00:03:38.929Z,6.89
2023-03-13T00:04:34.065Z,6.87
2023-03-13T00:05:29.115Z,6.89
2023-03-13T00:06:24.496Z,6.89
2023-03-13T00:07:19.415Z,6.89
2023-03-13T00:08:14.640Z,6.89
2023-03-13T00:09:09.707Z,6.90
2023-03-13T00:10:04.959Z,6.91
2023-03-13T00:11:00.038Z,6.91
2023-03-13T00:11:55.337Z,6.93
2023-03-13T00:12:50.263Z,6.93
2023-03-13T00:13:45.635Z,6.94
2023-03-13T00:14:40.605Z,6.95
2023-03-13T00:15:35.827Z,6.96
2023-03-13T00:16:30.963Z,6.96
2023-03-13T00:17:26.262Z,6.95
2023-03-13T00:18:21.209Z,6.94
2023-03-13T00:19:16.306Z,6.92
2023-03-13T00:20:11.401Z,6.92
2023-03-13T00:21:06.462Z,6.92
2023-03-13T00:22:01.871Z,6.91
2023-03-13T00:22:56.807Z,6.91
2023-03-13T00:23:52.162Z,6.92
2023-03-13T00:24:48.033Z,6.93
2023-03-13T00:25:42.314Z,6.93
2023-03-13T00:26:37.404Z,6.93
2023-03-13T00:27:32.823Z,6.93
2023-03-13T00:28:27.766Z,6.92
2023-03-13T00:29:23.040Z,6.92
2023-03-13T00:30:18.936Z,6.89
2023-03-13T00:31:14.178Z,6.87
2023-03-13T00:32:09.337Z,6.87
2023-03-13T00:33:04.422Z,6.89
2023-03-13T00:34:00.374Z,6.88
2023-03-13T00:34:55.571Z,6.89
2023-03-13T00:35:50.698Z,6.88
2023-03-13T00:36:45.866Z,6.88
2023-03-13T00:37:41.084Z,6.88
2023-03-13T00:38:36.232Z,6.90
2023-03-13T00:39:31.327Z,6.91
2023-03-13T00:40:26.933Z,6.89
2023-03-13T00:41:22.110Z,6.89
2023-03-13T00:42:17.319Z,6.92
2023-03-13T00:43:12.371Z,6.93
2023-03-13T00:44:07.627Z,6.92
2023-03-13T00:45:02.687Z,6.95
2023-03-13T00:45:57.945Z,6.96
2023-03-13T00:46:53.010Z,6.97
2023-03-13T00:47:48.521Z,6.97
2023-03-13T00:48:43.471Z,6.95
2023-03-13T00:49:38.570Z,6.95
2023-03-13T00:50:33.666Z,6.95
2023-03-13T00:51:28.829Z,6.98
2023-03-13T00:52:23.915Z,7.01
2023-03-13T00:53:19.191Z,7.03
2023-03-13T00:54:14.132Z,7.04
2023-03-13T00:55:09.335Z,7.04
2023-03-13T00:56:04.455Z,7.05
2023-03-13T00:56:59.827Z,7.05
2023-03-13T00:57:54.924Z,7.06
2023-03-13T00:58:50.154Z,7.06
2023-03-13T00:59:45.254Z,7.06
2023-03-13T01:00:40.387Z,7.06
2023-03-13T01:01:38.987Z,7.06
2023-03-13T01:02:34.289Z,7.05
2023-03-13T01:03:29.210Z,7.04
2023-03-13T01:04:24.303Z,7.06
2023-03-13T01:05:19.382Z,7.06
2023-03-13T01:06:18.975Z,7.03
2023-03-13T01:07:14.035Z,7.01
2023-03-13T01:08:09.285Z,7.01
2023-03-13T01:09:04.219Z,6.98
2023-03-13T01:09:59.484Z,6.96
2023-03-13T01:10:54.617Z,6.94
2023-03-13T01:11:49.748Z,6.93
2023-03-13T01:12:44.964Z,6.94
2023-03-13T01:13:39.942Z,6.95
2023-03-13T01:14:35.009Z,6.94
2023-03-13T01:15:30.325Z,6.93
2023-03-13T01:16:25.549Z,6.92
2023-03-13T01:17:20.676Z,6.92
2023-03-13T01:18:15.929Z,6.92
2023-03-13T01:19:13.149Z,6.94
2023-03-13T01:20:06.110Z,6.93
2023-03-13T01:21:01.473Z,6.95
2023-03-13T01:21:56.461Z,6.95
2023-03-13T01:22:51.730Z,6.94
2023-03-13T01:23:46.679Z,6.94
2023-03-13T01:24:41.873Z,6.94
2023-03-13T01:25:37.081Z,6.96
2023-03-13T01:26:32.234Z,6.96
2023-03-13T01:27:27.290Z,6.98
2023-03-13T01:28:22.676Z,6.98
2023-03-13T01:29:17.766Z,6.98
2023-03-13T01:30:12.894Z,6.95
2023-03-13T01:31:07.895Z,6.96
2023-03-13T01:32:02.993Z,6.97
2023-03-13T01:32:58.276Z,6.97
2023-03-13T01:33:53.305Z,6.98
2023-03-13T01:34:48.434Z,6.98
2023-03-13T01:35:43.570Z,6.99
2023-03-13T01:36:38.690Z,6.99
2023-03-13T01:37:34.055Z,7.02
2023-03-13T01:38:29.316Z,7.04
2023-03-13T01:39:24.281Z,7.06
2023-03-13T01:40:19.354Z,7.06
2023-03-13T01:41:14.564Z,7.06
2023-03-13T01:42:09.614Z,7.06
2023-03-13T01:43:06.328Z,7.06
2023-03-13T01:43:59.915Z,7.07
2023-03-13T01:44:55.244Z,7.08
2023-03-13T01:45:50.324Z,7.09
2023-03-13T01:46:45.477Z,7.08
2023-03-13T01:47:40.406Z,7.08
2023-03-13T01:48:35.643Z,7.09
2023-03-13T01:49:30.881Z,7.08
2023-03-13T01:50:25.970Z,7.09
2023-03-13T01:51:21.018Z,7.11
2023-03-13T01:52:16.122Z,7.11
2023-03-13T01:53:11.402Z,7.10
2023-03-13T01:54:06.344Z,7.11
2023-03-13T01:55:01.459Z,7.12
2023-03-13T01:55:56.711Z,7.11
2023-03-13T01:56:51.791Z,7.09
2023-03-13T01:57:47.013Z,7.11
2023-03-13T01:58:42.282Z,7.12
2023-03-13T01:59:37.431Z,7.09
2023-03-13T02:00:32.510Z,7.09
2023-03-13T02:01:27.771Z,7.08
2023-03-13T02:02:22.828Z,7.09
2023-03-13T02:03:18.140Z,7.04
2023-03-13T02:04:13.085Z,7.01
2023-03-13T02:05:08.348Z,7.01
2023-03-13T02:06:03.576Z,7.01
2023-03-13T02:06:58.700Z,7.04
2023-03-13T02:07:53.807Z,7.03
2023-03-13T02:08:49.105Z,7.02
2023-03-13T02:09:44.089Z,6.99
2023-03-13T02:10:40.029Z,6.95
2023-03-13T02:11:35.138Z,6.95
2023-03-13T02:12:30.491Z,6.92
2023-03-13T02:13:26.857Z,6.91
2023-03-13T02:14:22.453Z,6.91
2023-03-13T02:15:17.604Z,6.91
2023-03-13T02:16:12.762Z,6.87
2023-03-13T02:17:07.948Z,6.85
2023-03-13T02:18:03.803Z,6.84
2023-03-13T02:18:59.063Z,6.82
2023-03-13T02:19:54.846Z,6.84
2023-03-13T02:20:49.911Z,6.84
2023-03-13T02:21:45.033Z,6.83
2023-03-13T02:22:41.082Z,6.82
2023-03-13T02:23:36.337Z,6.84
2023-03-13T02:24:31.385Z,6.84
2023-03-13T02:25:27.750Z,6.83
2023-03-13T02:26:22.870Z,6.82
2023-03-13T02:27:18.697Z,6.80
2023-03-13T02:28:13.764Z,6.81
2023-03-13T02:29:09.317Z,6.80
2023-03-13T02:30:04.915Z,6.80
2023-03-13T02:31:00.229Z,6.82
2023-03-13T02:31:55.992Z,6.83
2023-03-13T02:32:51.283Z,6.83
2023-03-13T02:33:46.718Z,6.83
2023-03-13T02:34:42.288Z,6.85
2023-03-13T02:35:37.494Z,6.89
2023-03-13T02:36:32.613Z,6.89
2023-03-13T02:37:28.925Z,6.88
2023-03-13T02:38:24.384Z,6.87
2023-03-13T02:39:20.073Z,6.89
2023-03-13T02:40:15.149Z,6.91
2023-03-13T02:41:10.259Z,6.91
2023-03-13T02:42:06.198Z,6.92
2023-03-13T02:43:01.538Z,6.94
2023-03-13T02:43:57.266Z,6.95
2023-03-13T02:44:52.357Z,6.96
2023-03-13T02:45:47.640Z,6.97
2023-03-13T02:46:43.365Z,6.97
2023-03-13T02:47:38.520Z,7.00
2023-03-13T02:48:33.772Z,6.99
2023-03-13T02:49:30.012Z,7.00
2023-03-13T02:50:25.140Z,7.01
2023-03-13T02:51:20.932Z,6.99
2023-03-13T02:52:16.031Z,7.00
2023-03-13T02:53:11.356Z,7.01
2023-03-13T02:54:07.039Z,6.99
2023-03-13T02:55:02.263Z,6.98
2023-03-13T02:55:58.312Z,6.98
2023-03-13T02:56:53.426Z,6.98
2023-03-13T02:57:48.522Z,6.97
2023-03-13T02:58:51.334Z,6.96
2023-03-13T02:59:40.557Z,6.97
2023-03-13T03:00:34.680Z,6.98
2023-03-13T03:01:29.655Z,6.96
2023-03-13T03:02:24.666Z,6.95
2023-03-13T03:03:19.699Z,6.97
2023-03-13T03:04:14.825Z,6.97
2023-03-13T03:05:09.866Z,6.98
2023-03-13T03:06:04.995Z,6.97
2023-03-13T03:06:59.987Z,6.94
2023-03-13T03:08:00.118Z,6.93
2023-03-13T03:08:55.228Z,6.96
2023-03-13T03:09:50.744Z,6.98
2023-03-13T03:10:45.837Z,6.98
2023-03-13T03:11:40.917Z,6.99
2023-03-13T03:12:37.609Z,6.98
2023-03-13T03:13:33.068Z,6.99
2023-03-13T03:14:28.681Z,7.01
2023-03-13T03:15:23.962Z,7.01
2023-03-13T03:16:19.034Z,7.02
2023-03-13T03:17:14.975Z,7.03
2023-03-13T03:18:10.236Z,7.06
2023-03-13T03:19:05.372Z,7.05
2023-03-13T03:20:01.763Z,7.05
2023-03-13T03:20:56.927Z,7.04
2023-03-13T03:21:52.761Z,7.03
2023-03-13T03:22:48.005Z,7.03
2023-03-13T03:23:43.237Z,7.03
2023-03-13T03:24:39.009Z,7.04
2023-03-13T03:25:34.114Z,7.02
2023-03-13T03:26:29.932Z,7.00
2023-03-13T03:27:24.989Z,6.99
2023-03-13T03:28:20.502Z,6.99
2023-03-13T03:29:15.375Z,7.01
2023-03-13T03:30:10.481Z,7.01
2023-03-13T03:31:06.280Z,7.03
2023-03-13T03:32:01.673Z,7.03
2023-03-13T03:32:56.852Z,7.03
2023-03-13T03:33:51.875Z,7.05
2023-03-13T03:34:48.316Z,7.04
2023-03-13T03:35:43.605Z,7.07
2023-03-13T03:36:38.657Z,7.10
2023-03-13T03:37:38.111Z,7.11
2023-03-13T03:38:33.053Z,7.12
2023-03-13T03:39:28.433Z,7.12
2023-03-13T03:40:23.534Z,7.12
2023-03-13T03:41:18.670Z,7.11
2023-03-13T03:42:13.772Z,7.12
2023-03-13T03:43:09.701Z,7.12
2023-03-13T03:44:04.915Z,7.13
2023-03-13T03:45:00.028Z,7.11
2023-03-13T03:45:55.304Z,7.11
2023-03-13T03:46:50.338Z,7.12
2023-03-13T03:47:45.603Z,7.11
2023-03-13T03:48:41.908Z,7.10
2023-03-13T03:49:37.176Z,7.11
2023-03-13T03:50:32.296Z,7.11
2023-03-13T03:51:27.356Z,7.12
2023-03-13T03:52:22.888Z,7.11
2023-03-13T03:53:17.734Z,7.11
2023-03-13T03:54:12.820Z,7.11
2023-03-13T03:55:07.790Z,7.12
2023-03-13T03:56:02.908Z,7.12
2023-03-13T03:56:58.102Z,7.12
2023-03-13T03:57:53.229Z,7.11
2023-03-13T03:58:48.322Z,7.12
2023-03-13T03:59:43.372Z,7.13
2023-03-13T04:00:38.358Z,7.16
2023-03-13T04:01:33.488Z,7.16
2023-03-13T04:02:28.697Z,7.13
2023-03-13T04:03:23.731Z,7.13
2023-03-13T04:04:18.835Z,7.12
2023-03-13T04:05:13.856Z,7.11
2023-03-13T04:06:08.925Z,7.11
2023-03-13T04:07:03.988Z,7.11
2023-03-13T04:07:58.962Z,7.10
2023-03-13T04:08:54.098Z,7.08
2023-03-13T04:09:49.159Z,7.07
2023-03-13T04:10:44.196Z,7.05
2023-03-13T04:11:39.274Z,7.04
2023-03-13T04:12:34.381Z,7.05
2023-03-13T04:13:31.639Z,7.03
2023-03-13T04:14:26.710Z,7.00
2023-03-13T04:15:21.837Z,6.98
2023-03-13T04:16:17.164Z,6.99
2023-03-13T04:17:12.336Z,7.02
2023-03-13T04:18:07.342Z,7.02
2023-03-13T04:19:02.432Z,7.01
2023-03-13T04:19:57.463Z,6.99
2023-03-13T04:20:52.619Z,7.00
2023-03-13T04:21:47.694Z,7.00
2023-03-13T04:22:42.872Z,6.99
2023-03-13T04:23:37.733Z,6.99
2023-03-13T04:24:32.895Z,6.99
2023-03-13T04:25:32.295Z,7.03
2023-03-13T04:26:27.433Z,7.05
2023-03-13T04:27:22.623Z,7.00
2023-03-13T04:28:17.480Z,7.01
2023-03-13T04:29:12.478Z,7.03
2023-03-13T04:30:07.564Z,7.03
2023-03-13T04:31:02.626Z,7.04
2023-03-13T04:31:57.778Z,7.04
2023-03-13T04:32:52.650Z,7.06
2023-03-13T04:33:47.739Z,7.05
2023-03-13T04:34:42.709Z,7.05
2023-03-13T04:35:37.905Z,7.07
2023-03-13T04:36:32.819Z,7.09
2023-03-13T04:37:27.929Z,7.08
2023-03-13T04:38:23.069Z,7.08
2023-03-13T04:39:18.903Z,7.07
2023-03-13T04:40:14.011Z,7.09
2023-03-13T04:41:09.928Z,7.10
2023-03-13T04:42:05.219Z,7.09
2023-03-13T04:43:00.114Z,7.10
2023-03-13T04:43:55.909Z,7.10
2023-03-13T04:44:51.275Z,7.11
2023-03-13T04:45:46.397Z,7.07
2023-03-13T04:46:41.407Z,7.07
2023-03-13T04:47:36.478Z,7.07
2023-03-13T04:48:31.489Z,7.09
2023-03-13T04:49:26.475Z,7.11
2023-03-13T04:50:21.510Z,7.11
2023-03-13T04:51:21.124Z,7.13
2023-03-13T04:52:16.294Z,7.13
2023-03-13T04:53:11.647Z,7.13
2023-03-13T04:54:07.457Z,7.13
2023-03-13T04:55:02.553Z,7.15
2023-03-13T04:55:57.681Z,7.16
2023-03-13T04:56:53.900Z,7.15
2023-03-13T04:57:49.083Z,7.16
2023-03-13T04:58:46.892Z,7.18
2023-03-13T04:59:40.077Z,7.18
2023-03-13T05:00:35.139Z,7.18
2023-03-13T05:01:30.407Z,7.18
2023-03-13T05:02:25.629Z,7.20
2023-03-13T05:03:20.737Z,7.19
2023-03-13T05:04:15.842Z,7.18
2023-03-13T05:05:11.045Z,7.17
2023-03-13T05:06:06.023Z,7.18
2023-03-13T05:07:01.172Z,7.19
2023-03-13T05:07:56.227Z,7.19
2023-03-13T05:08:56.328Z,7.22
2023-03-13T05:09:51.532Z,7.20
2023-03-13T05:10:46.671Z,7.21
2023-03-13T05:11:41.891Z,7.22
2023-03-13T05:12:36.913Z,7.22
2023-03-13T05:13:31.956Z,7.22
2023-03-13T05:14:28.119Z,7.23
2023-03-13T05:15:23.079Z,7.25
2023-03-13T05:16:18.606Z,7.26
2023-03-13T05:17:13.566Z,7.31
2023-03-13T05:18:08.704Z,7.34
2023-03-13T05:19:03.763Z,7.38
2023-03-13T05:20:00.237Z,7.40
2023-03-13T05:20:55.341Z,7.43
2023-03-13T05:21:50.660Z,7.44
2023-03-13T05:22:45.618Z,7.47
2023-03-13T05:23:40.733Z,7.48
2023-03-13T05:24:35.869Z,7.49
2023-03-13T05:25:30.962Z,7.51
2023-03-13T05:26:25.974Z,7.55
2023-03-13T05:27:20.990Z,7.56
2023-03-13T05:28:19.114Z,7.58
2023-03-13T05:29:14.289Z,7.61
2023-03-13T05:30:09.469Z,7.61
2023-03-13T05:31:04.634Z,7.63
2023-03-13T05:31:59.812Z,7.63
2023-03-13T05:32:55.041Z,7.66
2023-03-13T05:33:50.079Z,7.66
2023-03-13T05:34:45.478Z,7.69
2023-03-13T05:35:40.673Z,7.69
2023-03-13T05:36:35.697Z,7.71
2023-03-13T05:37:30.860Z,7.73
2023-03-13T05:38:26.243Z,7.74
2023-03-13T05:39:21.236Z,7.76
2023-03-13T05:40:16.638Z,7.79
2023-03-13T05:41:11.753Z,7.79
2023-03-13T05:42:07.112Z,7.77
2023-03-13T05:43:02.298Z,7.78
2023-03-13T05:43:57.648Z,7.79
2023-03-13T05:44:52.778Z,7.81
2023-03-13T05:45:47.951Z,7.82
2023-03-13T05:46:43.218Z,7.83
2023-03-13T05:47:38.456Z,7.85
2023-03-13T05:48:33.652Z,7.85
2023-03-13T05:49:28.759Z,7.84
2023-03-13T05:50:23.893Z,7.83
2023-03-13T05:51:18.920Z,7.84
2023-03-13T05:52:13.900Z,7.83
2023-03-13T05:53:08.913Z,7.84
2023-03-13T05:54:04.004Z,7.86
2023-03-13T05:54:59.042Z,7.86
2023-03-13T05:55:54.318Z,7.86
2023-03-13T05:56:49.185Z,7.86
2023-03-13T05:57:44.162Z,7.84
2023-03-13T05:58:39.170Z,7.83
2023-03-13T05:59:34.314Z,7.87
2023-03-13T06:00:29.301Z,7.90
2023-03-13T06:01:24.466Z,7.89
2023-03-13T06:02:19.343Z,7.90
2023-03-13T06:03:14.613Z,7.93
2023-03-13T06:04:09.619Z,7.95
2023-03-13T06:05:04.641Z,7.96
2023-03-13T06:05:59.823Z,7.96
2023-03-13T06:06:54.813Z,7.96
2023-03-13T06:07:51.318Z,7.97
2023-03-13T06:08:46.591Z,8.00
2023-03-13T06:09:42.018Z,8.02
2023-03-13T06:10:37.141Z,8.03
2023-03-13T06:11:32.563Z,8.05
2023-03-13T06:12:27.716Z,8.06
2023-03-13T06:13:23.080Z,8.08
2023-03-13T06:14:18.307Z,8.09
2023-03-13T06:15:13.610Z,8.12
2023-03-13T06:16:09.316Z,8.13
2023-03-13T06:17:04.249Z,8.15
2023-03-13T06:17:59.465Z,8.15
2023-03-13T06:18:54.717Z,8.18
2023-03-13T06:19:50.098Z,8.20
2023-03-13T06:20:45.250Z,8.18
2023-03-13T06:21:40.535Z,8.20
2023-03-13T06:22:36.529Z,8.25
2023-03-13T06:23:31.822Z,8.29
2023-03-13T06:24:27.149Z,8.28
2023-03-13T06:25:22.428Z,8.27
2023-03-13T06:26:17.709Z,8.28
2023-03-13T06:27:13.243Z,8.28
2023-03-13T06:28:08.415Z,8.30
2023-03-13T06:29:03.722Z,8.33
2023-03-13T06:29:59.130Z,8.34
2023-03-13T06:30:54.133Z,8.35
2023-03-13T06:31:49.399Z,8.35
2023-03-13T06:32:44.380Z,8.37
2023-03-13T06:33:39.437Z,8.39
2023-03-13T06:34:34.438Z,8.36
2023-03-13T06:35:29.511Z,8.37
2023-03-13T06:36:24.572Z,8.41
2023-03-13T06:37:19.687Z,8.44
2023-03-13T06:38:14.605Z,8.46
2023-03-13T06:39:09.854Z,8.47
2023-03-13T06:40:05.720Z,8.49
2023-03-13T06:41:00.750Z,8.50
2023-03-13T06:41:55.722Z,8.52
2023-03-13T06:42:50.960Z,8.53
2023-03-13T06:43:46.051Z,8.55
2023-03-13T06:44:41.089Z,8.58
2023-03-13T06:45:36.078Z,8.61
2023-03-13T06:46:31.252Z,8.64
2023-03-13T06:47:26.416Z,8.67
2023-03-13T06:48:21.487Z,8.68
2023-03-13T06:49:16.525Z,8.70
2023-03-13T06:50:11.622Z,8.69
2023-03-13T06:51:06.646Z,8.70
2023-03-13T06:52:01.916Z,8.72
2023-03-13T06:52:56.743Z,8.71
2023-03-13T06:53:51.855Z,8.71
2023-03-13T06:54:46.847Z,8.74
2023-03-13T06:55:42.115Z,8.73
2023-03-13T06:56:37.416Z,8.72
2023-03-13T06:57:32.816Z,8.72
2023-03-13T06:58:32.402Z,8.74
2023-03-13T06:59:23.494Z,8.70
2023-03-13T07:00:18.898Z,8.69
2023-03-13T07:01:14.421Z,8.65
2023-03-13T07:02:09.710Z,8.67
2023-03-13T07:03:05.522Z,8.67
2023-03-13T07:04:01.185Z,8.64
2023-03-13T07:04:56.461Z,8.68
2023-03-13T07:05:51.682Z,8.71
2023-03-13T07:06:47.101Z,8.71
2023-03-13T07:07:42.543Z,8.71
2023-03-13T07:08:37.911Z,8.70
2023-03-13T07:09:33.325Z,8.71
2023-03-13T07:10:28.814Z,8.71
2023-03-13T07:11:24.075Z,8.77
2023-03-13T07:12:19.585Z,8.81
2023-03-13T07:13:14.907Z,8.85
2023-03-13T07:14:16.896Z,8.88
2023-03-13T07:15:06.491Z,8.93
2023-03-13T07:16:00.964Z,8.95
2023-03-13T07:16:56.626Z,8.97
2023-03-13T07:17:51.783Z,9.01
2023-03-13T07:18:47.277Z,9.07
2023-03-13T07:19:42.357Z,9.06
2023-03-13T07:20:37.443Z,9.10
2023-03-13T07:21:32.496Z,9.16
2023-03-13T07:22:27.451Z,9.23
2023-03-13T07:23:22.558Z,9.24
2023-03-13T07:24:17.606Z,9.31
2023-03-13T07:25:12.625Z,9.36
2023-03-13T07:26:07.769Z,9.40
2023-03-13T07:27:07.546Z,9.41
2023-03-13T07:27:58.737Z,9.48
2023-03-13T07:28:52.748Z,9.55
2023-03-13T07:29:47.791Z,9.60
2023-03-13T07:30:42.940Z,9.68
2023-03-13T07:31:38.012Z,9.77
2023-03-13T07:32:33.962Z,9.87
2023-03-13T07:33:29.151Z,9.97
2023-03-13T07:34:24.655Z,10.02
2023-03-13T07:35:20.165Z,10.13
2023-03-13T07:36:15.857Z,10.20
2023-03-13T07:37:11.165Z,10.29
2023-03-13T07:38:06.421Z,10.31
2023-03-13T07:39:01.834Z,10.28
2023-03-13T07:39:57.284Z,10.21
2023-03-13T07:40:52.912Z,10.22
2023-03-13T07:41:48.465Z,10.21
2023-03-13T07:42:43.486Z,10.23
2023-03-13T07:43:38.617Z,10.24
2023-03-13T07:44:33.618Z,10.24
2023-03-13T07:45:28.727Z,10.20
2023-03-13T07:46:23.993Z,10.22
2023-03-13T07:47:18.781Z,10.21
2023-03-13T07:48:13.828Z,10.20
2023-03-13T07:49:08.858Z,10.20
2023-03-13T07:50:03.923Z,10.18
2023-03-13T07:50:58.979Z,10.21
2023-03-13T07:51:54.048Z,10.24
2023-03-13T07:52:49.128Z,10.22
2023-03-13T07:53:44.168Z,10.19
2023-03-13T07:54:39.340Z,10.20
2023-03-13T07:55:34.771Z,10.25
2023-03-13T07:56:30.294Z,10.28
2023-03-13T07:57:26.247Z,10.30
2023-03-13T07:58:21.530Z,10.33
2023-03-13T07:59:17.503Z,10.36
2023-03-13T08:00:13.416Z,10.40
2023-03-13T08:01:08.665Z,10.46
2023-03-13T08:02:04.498Z,10.49
2023-03-13T08:03:00.040Z,10.56
2023-03-13T08:03:55.430Z,10.64
2023-03-13T08:04:52.022Z,10.73
2023-03-13T08:05:47.507Z,10.75
2023-03-13T08:06:43.349Z,10.86
2023-03-13T08:07:38.971Z,10.94
2023-03-13T08:08:34.340Z,10.98
2023-03-13T08:09:30.248Z,11.02
2023-03-13T08:10:25.732Z,11.09
2023-03-13T08:11:21.818Z,11.12
2023-03-13T08:12:16.925Z,11.20
2023-03-13T08:13:12.801Z,11.29
2023-03-13T08:14:08.318Z,11.38
2023-03-13T08:15:03.794Z,11.41
2023-03-13T08:15:59.585Z,11.48
2023-03-13T08:16:55.754Z,11.49
2023-03-13T08:17:51.185Z,11.51
2023-03-13T08:18:47.179Z,11.60
2023-03-13T08:19:42.788Z,11.70
2023-03-13T08:20:38.388Z,11.81
2023-03-13T08:21:34.054Z,11.89
2023-03-13T08:22:29.453Z,11.97
2023-03-13T08:23:25.451Z,12.06
2023-03-13T08:24:20.621Z,12.17
2023-03-13T08:25:16.162Z,12.25
2023-03-13T08:26:11.768Z,12.29
2023-03-13T08:27:07.412Z,12.18
2023-03-13T08:28:02.846Z,12.16
2023-03-13T08:28:59.373Z,12.16
2023-03-13T08:29:54.727Z,12.15
2023-03-13T08:30:50.894Z,12.12
2023-03-13T08:31:46.161Z,12.11
2023-03-13T08:32:41.948Z,12.19
2023-03-13T08:33:37.436Z,12.17
2023-03-13T08:34:32.916Z,12.19
2023-03-13T08:35:29.002Z,12.20
2023-03-13T08:36:24.536Z,12.23
2023-03-13T08:37:19.858Z,12.27
2023-03-13T08:38:15.743Z,12.26
2023-03-13T08:39:11.133Z,12.31
2023-03-13T08:40:06.676Z,12.27
2023-03-13T08:41:02.984Z,12.17
2023-03-13T08:41:58.491Z,12.17
2023-03-13T08:42:54.380Z,12.14
2023-03-13T08:43:49.750Z,12.18
2023-03-13T08:44:45.366Z,12.30
2023-03-13T08:45:41.096Z,12.36
2023-03-13T08:46:36.660Z,12.40
2023-03-13T08:47:33.045Z,12.42
2023-03-13T08:48:28.403Z,12.45
2023-03-13T08:49:24.520Z,12.50
2023-03-13T08:50:19.844Z,12.45
2023-03-13T08:51:15.492Z,12.42
2023-03-13T08:52:10.980Z,12.41
2023-03-13T08:53:06.494Z,12.45
2023-03-13T08:54:02.379Z,12.45
2023-03-13T08:54:57.739Z,12.40
2023-03-13T08:55:53.467Z,12.37
2023-03-13T08:56:49.128Z,12.37
2023-03-13T08:57:44.775Z,12.51
2023-03-13T08:58:40.252Z,12.64
2023-03-13T08:59:36.634Z,12.87
2023-03-13T09:00:32.278Z,13.11
2023-03-13T09:01:27.669Z,13.31
2023-03-13T09:02:23.322Z,13.36
2023-03-13T09:03:19.855Z,13.49
2023-03-13T09:04:15.315Z,13.65
2023-03-13T09:05:11.940Z,13.64
2023-03-13T09:06:07.442Z,13.74
2023-03-13T09:07:02.952Z,13.87
2023-03-13T09:07:58.690Z,13.93
2023-03-13T09:08:54.375Z,13.94
2023-03-13T09:09:49.623Z,13.95
2023-03-13T09:10:45.285Z,14.07
2023-03-13T09:11:40.393Z,14.15
2023-03-13T09:12:35.496Z,14.36
2023-03-13T09:13:30.592Z,14.43
2023-03-13T09:14:25.574Z,14.43
2023-03-13T09:15:20.653Z,14.39
2023-03-13T09:16:15.759Z,14.36
2023-03-13T09:17:10.753Z,14.26
2023-03-13T09:18:05.902Z,14.43
2023-03-13T09:19:00.903Z,14.52
2023-03-13T09:20:00.681Z,14.54
2023-03-13T09:20:53.041Z,14.49
2023-03-13T09:21:47.317Z,14.43
2023-03-13T09:22:42.958Z,14.31
2023-03-13T09:23:38.752Z,14.30
2023-03-13T09:24:34.221Z,14.27
2023-03-13T09:25:29.698Z,14.10
2023-03-13T09:26:25.231Z,13.89
2023-03-13T09:27:20.822Z,13.79
2023-03-13T09:28:16.317Z,13.80
2023-03-13T09:29:11.664Z,13.83
2023-03-13T09:30:07.236Z,13.85
2023-03-13T09:31:02.644Z,13.99
2023-03-13T09:31:57.967Z,14.15
2023-03-13T09:32:53.091Z,14.17
2023-03-13T09:33:48.210Z,14.24
2023-03-13T09:34:43.171Z,14.39
2023-03-13T09:35:38.377Z,14.33
2023-03-13T09:36:33.195Z,14.22
2023-03-13T09:37:28.243Z,14.31
2023-03-13T09:38:23.451Z,14.40
2023-03-13T09:39:21.350Z,14.35
2023-03-13T09:40:16.499Z,14.43
2023-03-13T09:41:11.550Z,14.58
2023-03-13T09:42:07.813Z,14.59
2023-03-13T09:43:01.652Z,14.50
2023-03-13T09:43:56.739Z,14.45
2023-03-13T09:44:51.998Z,14.29
2023-03-13T09:45:46.964Z,14.29
2023-03-13T09:46:42.260Z,14.30
2023-03-13T09:47:37.747Z,14.36
2023-03-13T09:48:33.211Z,14.47
2023-03-13T09:49:28.533Z,14.51
2023-03-13T09:50:24.030Z,14.45
2023-03-13T09:51:19.627Z,14.51
2023-03-13T09:52:14.800Z,14.44
2023-03-13T09:53:10.307Z,14.57
2023-03-13T09:54:05.872Z,14.60
2023-03-13T09:55:01.436Z,14.48
2023-03-13T09:55:56.768Z,14.60
2023-03-13T09:56:52.169Z,14.72
2023-03-13T09:57:47.798Z,14.91
2023-03-13T09:58:43.198Z,15.15
2023-03-13T09:59:38.755Z,15.42
2023-03-13T10:00:34.257Z,15.67
2023-03-13T10:01:29.850Z,15.92
2023-03-13T10:02:29.041Z,16.00
2023-03-13T10:03:24.332Z,16.01
2023-03-13T10:04:19.939Z,16.17
2023-03-13T10:05:15.553Z,16.38
2023-03-13T10:06:10.923Z,16.27
2023-03-13T10:07:06.434Z,16.33
2023-03-13T10:08:01.973Z,16.47
2023-03-13T10:08:58.695Z,16.51
2023-03-13T10:09:54.321Z,16.74
2023-03-13T10:10:50.101Z,16.86
2023-03-13T10:11:45.220Z,17.08
2023-03-13T10:12:40.742Z,16.95
2023-03-13T10:13:36.518Z,16.81
2023-03-13T10:14:32.862Z,16.64
2023-03-13T10:15:28.378Z,16.81
2023-03-13T10:16:23.825Z,17.11
2023-03-13T10:17:19.133Z,17.29
2023-03-13T10:18:16.583Z,17.56
2023-03-13T10:19:12.208Z,17.70
2023-03-13T10:20:07.477Z,17.58
2023-03-13T10:21:03.183Z,17.42
2023-03-13T10:21:58.452Z,17.51
2023-03-13T10:22:54.132Z,17.54
2023-03-13T10:23:49.636Z,17.44
2023-03-13T10:24:45.227Z,17.60
2023-03-13T10:25:40.758Z,17.41
2023-03-13T10:26:36.271Z,17.35
2023-03-13T10:27:31.684Z,17.37
2023-03-13T10:28:27.334Z,17.50
2023-03-13T10:29:22.634Z,17.83
2023-03-13T10:30:18.263Z,18.08
2023-03-13T10:31:13.660Z,17.95
2023-03-13T10:32:08.571Z,17.86
2023-03-13T10:33:03.670Z,17.91
2023-03-13T10:33:58.641Z,18.04
2023-03-13T10:34:53.748Z,18.10
2023-03-13T10:35:48.973Z,18.29
2023-03-13T10:36:43.987Z,18.14
2023-03-13T10:37:38.975Z,18.21
2023-03-13T10:38:34.184Z,18.23
2023-03-13T10:39:29.282Z,18.11
2023-03-13T10:40:24.419Z,18.29
2023-03-13T10:41:21.271Z,18.38
2023-03-13T10:42:16.260Z,18.30
2023-03-13T10:43:11.327Z,18.27
2023-03-13T10:44:06.345Z,18.37
2023-03-13T10:45:01.968Z,18.32
2023-03-13T10:45:57.530Z,18.18
2023-03-13T10:46:53.109Z,18.32
2023-03-13T10:47:48.492Z,18.64
2023-03-13T10:48:44.147Z,18.59
2023-03-13T10:49:39.671Z,18.75
2023-03-13T10:50:35.312Z,18.98
2023-03-13T10:51:30.804Z,18.94
2023-03-13T10:52:26.266Z,19.01
2023-03-13T10:53:21.727Z,19.07
2023-03-13T10:54:17.093Z,18.83
2023-03-13T10:55:12.551Z,18.64
2023-03-13T10:56:08.063Z,18.59
2023-03-13T10:57:03.620Z,18.77
2023-03-13T10:57:58.683Z,18.86
2023-03-13T10:58:53.764Z,19.14
2023-03-13T10:59:48.862Z,19.47
2023-03-13T11:00:43.888Z,19.71
2023-03-13T11:01:38.862Z,20.14
2023-03-13T11:02:34.200Z,20.51
2023-03-13T11:03:29.125Z,20.72
2023-03-13T11:04:26.706Z,20.20
2023-03-13T11:05:21.643Z,19.97
2023-03-13T11:06:16.890Z,19.91
2023-03-13T11:07:11.728Z,19.53
2023-03-13T11:08:06.795Z,19.27
2023-03-13T11:09:01.896Z,19.40
2023-03-13T11:09:57.117Z,19.42
2023-03-13T11:10:52.264Z,19.45
2023-03-13T11:11:47.778Z,19.44
2023-03-13T11:12:43.023Z,19.59
2023-03-13T11:13:38.633Z,19.57
2023-03-13T11:14:34.008Z,19.48
2023-03-13T11:15:29.384Z,19.59
2023-03-13T11:16:24.970Z,19.79
2023-03-13T11:17:20.365Z,19.88
2023-03-13T11:18:15.884Z,19.98
2023-03-13T11:19:11.394Z,20.09
2023-03-13T11:20:06.824Z,20.16
2023-03-13T11:21:17.283Z,20.30
2023-03-13T11:21:58.829Z,20.35
2023-03-13T11:22:53.185Z,20.44
2023-03-13T11:23:48.451Z,20.55
2023-03-13T11:24:44.138Z,20.67
2023-03-13T11:25:39.593Z,20.66
2023-03-13T11:26:35.233Z,20.53
2023-03-13T11:27:30.755Z,20.49
2023-03-13T11:29:50.707Z,20.09
2023-03-13T11:30:45.939Z,20.03
2023-03-13T11:31:41.582Z,20.03
2023-03-13T11:32:36.811Z,20.19
2023-03-13T11:33:32.413Z,20.44
2023-03-13T11:34:27.735Z,20.19
2023-03-13T11:35:23.338Z,19.89
2023-03-13T11:36:18.661Z,19.73
2023-03-13T11:37:14.245Z,19.69
2023-03-13T11:38:09.585Z,19.89
2023-03-13T11:39:05.097Z,20.26
2023-03-13T11:40:00.603Z,20.48
2023-03-13T11:40:56.094Z,20.62
2023-03-13T11:41:51.739Z,20.72
2023-03-13T11:42:47.235Z,20.98
2023-03-13T11:43:42.729Z,21.30
2023-03-13T11:44:38.181Z,21.42
2023-03-13T11:45:33.857Z,21.15
2023-03-13T11:46:29.246Z,20.89
2023-03-13T11:47:24.666Z,20.88
2023-03-13T11:48:20.168Z,20.74
2023-03-13T11:49:15.799Z,20.46
2023-03-13T11:50:11.338Z,20.44
2023-03-13T11:51:07.132Z,20.53
2023-03-13T11:52:02.519Z,20.48
2023-03-13T11:52:57.916Z,20.55
2023-03-13T11:53:53.484Z,20.80
2023-03-13T11:54:49.003Z,20.68
2023-03-13T11:55:44.731Z,20.78
2023-03-13T11:56:40.047Z,20.73
2023-03-13T11:57:35.446Z,20.74
2023-03-13T11:58:31.062Z,20.77
2023-03-13T11:59:26.561Z,20.85
2023-03-13T12:00:22.269Z,20.68
2023-03-13T12:01:17.855Z,20.74
2023-03-13T12:02:13.238Z,20.47
2023-03-13T12:03:08.574Z,20.06
2023-03-13T12:04:03.849Z,20.03
2023-03-13T12:04:59.406Z,20.12
2023-03-13T12:05:55.077Z,20.08
2023-03-13T12:06:50.304Z,20.14
2023-03-13T12:07:45.684Z,20.13
2023-03-13T12:08:41.506Z,20.17
2023-03-13T12:09:36.951Z,20.32